sensor_id;sensor_type;location;lat;lon;timestamp;P1;durP1;ratioP1;P2;durP2;ratioP2
179;SDS011;78;48.788;9.010;2024-01-15T00:00:50;44.37;;;12.27;;
179;SDS011;78;48.788;9.010;2024-01-15T00:03:16;43.70;;;12.50;;
179;SDS011;78;48.788;9.010;2024-01-15T00:05:42;41.53;;;12.00;;
179;SDS011;78;48.788;9.010;2024-01-15T00:08:08;46.30;;;12.03;;
179;SDS011;78;48.788;9.010;2024-01-15T00:10:35;42.60;;;11.90;;
179;SDS011;78;48.788;9.010;2024-01-15T00:13:02;43.70;;;12.43;;
179;SDS011;78;48.788;9.010;2024-01-15T00:15:28;44.10;;;12.50;;
179;SDS011;78;48.788;9.010;2024-01-15T00:17:55;42.33;;;11.63;;
179;SDS011;78;48.788;9.010;2024-01-15T00:20:21;45.30;;;13.00;;
179;SDS011;78;48.788;9.010;2024-01-15T00:22:47;41.93;;;11.83;;
179;SDS011;78;48.788;9.010;2024-01-15T00:25:14;40.57;;;11.27;;
179;SDS011;78;48.788;9.010;2024-01-15T00:27:40;37.77;;;11.50;;
179;SDS011;78;48.788;9.010;2024-01-15T00:30:07;43.70;;;12.03;;
179;SDS011;78;48.788;9.010;2024-01-15T00:32:33;41.47;;;11.93;;
179;SDS011;78;48.788;9.010;2024-01-15T00:34:59;40.73;;;11.63;;
179;SDS011;78;48.788;9.010;2024-01-15T00:37:25;37.40;;;10.97;;
179;SDS011;78;48.788;9.010;2024-01-15T00:39:51;38.83;;;11.37;;
179;SDS011;78;48.788;9.010;2024-01-15T00:42:17;37.77;;;10.97;;
179;SDS011;78;48.788;9.010;2024-01-15T00:44:44;38.43;;;10.90;;
179;SDS011;78;48.788;9.010;2024-01-15T00:47:10;39.63;;;10.90;;
179;SDS011;78;48.788;9.010;2024-01-15T00:49:37;38.37;;;11.33;;
179;SDS011;78;48.788;9.010;2024-01-15T00:52:03;38.43;;;10.63;;
179;SDS011;78;48.788;9.010;2024-01-15T00:54:29;36.90;;;10.83;;
179;SDS011;78;48.788;9.010;2024-01-15T00:56:55;40.00;;;11.50;;
179;SDS011;78;48.788;9.010;2024-01-15T00:59:21;41.03;;;11.80;;
179;SDS011;78;48.788;9.010;2024-01-15T01:01:48;41.37;;;11.40;;
179;SDS011;78;48.788;9.010;2024-01-15T01:04:14;38.30;;;10.33;;
179;SDS011;78;48.788;9.010;2024-01-15T01:06:40;36.80;;;11.23;;
179;SDS011;78;48.788;9.010;2024-01-15T01:09:06;45.67;;;12.33;;
179;SDS011;78;48.788;9.010;2024-01-15T01:11:33;39.13;;;11.03;;
179;SDS011;78;48.788;9.010;2024-01-15T01:13:59;40.60;;;11.20;;
179;SDS011;78;48.788;9.010;2024-01-15T01:16:26;35.83;;;11.00;;
179;SDS011;78;48.788;9.010;2024-01-15T01:18:53;42.20;;;12.13;;
179;SDS011;78;48.788;9.010;2024-01-15T01:21:19;40.57;;;11.40;;
179;SDS011;78;48.788;9.010;2024-01-15T01:23:45;40.30;;;11.43;;
179;SDS011;78;48.788;9.010;2024-01-15T01:26:15;38.87;;;10.60;;
179;SDS011;78;48.788;9.010;2024-01-15T01:28:42;39.33;;;11.33;;
179;SDS011;78;48.788;9.010;2024-01-15T01:31:07;41.70;;;11.50;;
179;SDS011;78;48.788;9.010;2024-01-15T01:33:34;38.50;;;10.57;;
179;SDS011;78;48.788;9.010;2024-01-15T01:36:00;36.33;;;11.33;;
179;SDS011;78;48.788;9.010;2024-01-15T01:38:27;40.10;;;11.70;;
179;SDS011;78;48.788;9.010;2024-01-15T01:40:53;37.70;;;10.50;;
179;SDS011;78;48.788;9.010;2024-01-15T01:43:25;39.37;;;10.83;;
179;SDS011;78;48.788;9.010;2024-01-15T01:45:51;40.80;;;11.03;;
179;SDS011;78;48.788;9.010;2024-01-15T01:48:18;39.20;;;11.07;;
179;SDS011;78;48.788;9.010;2024-01-15T01:50:44;37.80;;;11.20;;
179;SDS011;78;48.788;9.010;2024-01-15T01:53:10;38.00;;;11.00;;
179;SDS011;78;48.788;9.010;2024-01-15T01:55:37;38.17;;;10.53;;
179;SDS011;78;48.788;9.010;2024-01-15T01:58:04;36.10;;;10.20;;
179;SDS011;78;48.788;9.010;2024-01-15T02:00:31;40.57;;;11.40;;
179;SDS011;78;48.788;9.010;2024-01-15T02:02:58;35.70;;;9.90;;
179;SDS011;78;48.788;9.010;2024-01-15T02:05:24;35.73;;;10.00;;
179;SDS011;78;48.788;9.010;2024-01-15T02:07:51;36.60;;;10.77;;
179;SDS011;78;48.788;9.010;2024-01-15T02:10:17;36.70;;;10.30;;
179;SDS011;78;48.788;9.010;2024-01-15T02:12:43;36.77;;;10.37;;
179;SDS011;78;48.788;9.010;2024-01-15T02:15:10;35.50;;;10.13;;
179;SDS011;78;48.788;9.010;2024-01-15T02:18:11;37.67;;;10.90;;
179;SDS011;78;48.788;9.010;2024-01-15T02:20:31;34.70;;;10.07;;
179;SDS011;78;48.788;9.010;2024-01-15T02:23:07;38.33;;;10.20;;
179;SDS011;78;48.788;9.010;2024-01-15T02:25:38;32.50;;;9.10;;
179;SDS011;78;48.788;9.010;2024-01-15T02:28:05;37.63;;;10.53;;
179;SDS011;78;48.788;9.010;2024-01-15T02:30:32;41.33;;;10.73;;
179;SDS011;78;48.788;9.010;2024-01-15T02:32:58;34.07;;;10.20;;
179;SDS011;78;48.788;9.010;2024-01-15T02:35:24;34.43;;;10.10;;
179;SDS011;78;48.788;9.010;2024-01-15T02:37:50;37.53;;;10.03;;
179;SDS011;78;48.788;9.010;2024-01-15T02:40:16;38.47;;;10.37;;
179;SDS011;78;48.788;9.010;2024-01-15T02:42:43;36.53;;;9.93;;
179;SDS011;78;48.788;9.010;2024-01-15T02:45:09;41.97;;;10.20;;
179;SDS011;78;48.788;9.010;2024-01-15T02:47:35;34.00;;;10.20;;
179;SDS011;78;48.788;9.010;2024-01-15T02:50:01;40.27;;;10.80;;
179;SDS011;78;48.788;9.010;2024-01-15T02:52:27;38.83;;;10.50;;
179;SDS011;78;48.788;9.010;2024-01-15T02:54:54;37.27;;;11.00;;
179;SDS011;78;48.788;9.010;2024-01-15T02:57:20;36.27;;;10.70;;
179;SDS011;78;48.788;9.010;2024-01-15T02:59:46;41.23;;;10.13;;
179;SDS011;78;48.788;9.010;2024-01-15T03:02:12;36.20;;;10.50;;
179;SDS011;78;48.788;9.010;2024-01-15T03:04:42;40.17;;;11.10;;
179;SDS011;78;48.788;9.010;2024-01-15T03:07:08;33.20;;;9.80;;
179;SDS011;78;48.788;9.010;2024-01-15T03:09:34;36.60;;;10.30;;
179;SDS011;78;48.788;9.010;2024-01-15T03:12:00;33.90;;;10.27;;
179;SDS011;78;48.788;9.010;2024-01-15T03:14:26;38.70;;;9.80;;
179;SDS011;78;48.788;9.010;2024-01-15T03:16:53;36.70;;;10.40;;
179;SDS011;78;48.788;9.010;2024-01-15T03:19:19;34.60;;;9.97;;
179;SDS011;78;48.788;9.010;2024-01-15T03:21:45;33.87;;;9.90;;
179;SDS011;78;48.788;9.010;2024-01-15T03:24:11;33.47;;;9.57;;
179;SDS011;78;48.788;9.010;2024-01-15T03:26:37;43.23;;;11.23;;
179;SDS011;78;48.788;9.010;2024-01-15T03:29:03;43.03;;;10.80;;
179;SDS011;78;48.788;9.010;2024-01-15T03:31:29;36.17;;;10.03;;
179;SDS011;78;48.788;9.010;2024-01-15T03:33:56;35.73;;;9.80;;
179;SDS011;78;48.788;9.010;2024-01-15T03:36:22;35.67;;;9.10;;
179;SDS011;78;48.788;9.010;2024-01-15T03:38:49;28.93;;;8.50;;
179;SDS011;78;48.788;9.010;2024-01-15T03:41:15;32.97;;;9.43;;
179;SDS011;78;48.788;9.010;2024-01-15T03:43:41;35.27;;;9.17;;
179;SDS011;78;48.788;9.010;2024-01-15T03:46:07;40.80;;;10.27;;
179;SDS011;78;48.788;9.010;2024-01-15T03:48:34;34.33;;;9.93;;
179;SDS011;78;48.788;9.010;2024-01-15T03:51:00;34.33;;;9.67;;
179;SDS011;78;48.788;9.010;2024-01-15T03:53:27;40.63;;;9.03;;
179;SDS011;78;48.788;9.010;2024-01-15T03:55:53;32.50;;;9.30;;
179;SDS011;78;48.788;9.010;2024-01-15T03:58:19;34.43;;;9.70;;
179;SDS011;78;48.788;9.010;2024-01-15T04:00:45;32.87;;;9.07;;
179;SDS011;78;48.788;9.010;2024-01-15T04:03:12;33.20;;;8.77;;
179;SDS011;78;48.788;9.010;2024-01-15T04:05:38;33.10;;;8.97;;
179;SDS011;78;48.788;9.010;2024-01-15T04:08:04;30.90;;;8.70;;
179;SDS011;78;48.788;9.010;2024-01-15T04:10:31;31.67;;;8.50;;
179;SDS011;78;48.788;9.010;2024-01-15T04:12:58;32.17;;;8.73;;
179;SDS011;78;48.788;9.010;2024-01-15T04:15:25;28.93;;;8.70;;
179;SDS011;78;48.788;9.010;2024-01-15T04:17:52;40.17;;;9.40;;
179;SDS011;78;48.788;9.010;2024-01-15T04:20:18;31.43;;;8.53;;
179;SDS011;78;48.788;9.010;2024-01-15T04:22:44;29.83;;;9.20;;
179;SDS011;78;48.788;9.010;2024-01-15T04:25:11;32.07;;;9.40;;
179;SDS011;78;48.788;9.010;2024-01-15T04:27:37;32.90;;;9.10;;
179;SDS011;78;48.788;9.010;2024-01-15T04:30:03;36.87;;;9.83;;
179;SDS011;78;48.788;9.010;2024-01-15T04:32:30;34.57;;;9.20;;
179;SDS011;78;48.788;9.010;2024-01-15T04:34:56;35.23;;;9.40;;
179;SDS011;78;48.788;9.010;2024-01-15T04:37:21;34.70;;;8.63;;
179;SDS011;78;48.788;9.010;2024-01-15T04:39:47;33.30;;;9.70;;
179;SDS011;78;48.788;9.010;2024-01-15T04:42:14;37.83;;;11.10;;
179;SDS011;78;48.788;9.010;2024-01-15T04:44:40;35.00;;;9.53;;
179;SDS011;78;48.788;9.010;2024-01-15T04:47:06;31.40;;;9.40;;
179;SDS011;78;48.788;9.010;2024-01-15T04:49:32;32.07;;;9.33;;
179;SDS011;78;48.788;9.010;2024-01-15T04:51:59;34.17;;;10.17;;
179;SDS011;78;48.788;9.010;2024-01-15T04:54:24;35.50;;;9.67;;
179;SDS011;78;48.788;9.010;2024-01-15T04:56:51;35.13;;;9.73;;
179;SDS011;78;48.788;9.010;2024-01-15T04:59:17;36.67;;;10.90;;
179;SDS011;78;48.788;9.010;2024-01-15T05:01:43;34.10;;;10.43;;
179;SDS011;78;48.788;9.010;2024-01-15T05:04:09;38.80;;;11.17;;
179;SDS011;78;48.788;9.010;2024-01-15T05:06:35;34.90;;;10.03;;
179;SDS011;78;48.788;9.010;2024-01-15T05:09:01;35.90;;;10.50;;
179;SDS011;78;48.788;9.010;2024-01-15T05:11:28;37.97;;;10.93;;
179;SDS011;78;48.788;9.010;2024-01-15T05:13:54;34.37;;;10.40;;
179;SDS011;78;48.788;9.010;2024-01-15T05:16:20;40.80;;;10.60;;
179;SDS011;78;48.788;9.010;2024-01-15T05:18:47;38.63;;;11.13;;
179;SDS011;78;48.788;9.010;2024-01-15T05:21:13;37.73;;;11.30;;
179;SDS011;78;48.788;9.010;2024-01-15T05:23:40;34.73;;;11.00;;
179;SDS011;78;48.788;9.010;2024-01-15T05:26:06;39.70;;;12.13;;
179;SDS011;78;48.788;9.010;2024-01-15T05:28:34;39.40;;;12.30;;
179;SDS011;78;48.788;9.010;2024-01-15T05:31:00;37.00;;;11.20;;
179;SDS011;78;48.788;9.010;2024-01-15T05:33:27;38.80;;;10.90;;
179;SDS011;78;48.788;9.010;2024-01-15T05:35:53;35.70;;;10.90;;
179;SDS011;78;48.788;9.010;2024-01-15T05:38:20;36.87;;;11.03;;
179;SDS011;78;48.788;9.010;2024-01-15T05:40:46;38.63;;;10.90;;
179;SDS011;78;48.788;9.010;2024-01-15T05:43:12;35.67;;;10.43;;
179;SDS011;78;48.788;9.010;2024-01-15T05:45:38;37.43;;;10.83;;
179;SDS011;78;48.788;9.010;2024-01-15T05:48:04;32.40;;;10.20;;
179;SDS011;78;48.788;9.010;2024-01-15T05:50:30;35.43;;;10.27;;
179;SDS011;78;48.788;9.010;2024-01-15T05:52:57;39.00;;;11.40;;
179;SDS011;78;48.788;9.010;2024-01-15T05:55:23;39.53;;;11.37;;
179;SDS011;78;48.788;9.010;2024-01-15T05:57:49;37.27;;;11.47;;
179;SDS011;78;48.788;9.010;2024-01-15T06:00:15;37.57;;;11.53;;
179;SDS011;78;48.788;9.010;2024-01-15T06:02:42;35.43;;;10.40;;
179;SDS011;78;48.788;9.010;2024-01-15T06:05:07;36.30;;;10.77;;
179;SDS011;78;48.788;9.010;2024-01-15T06:07:34;33.53;;;10.27;;
179;SDS011;78;48.788;9.010;2024-01-15T06:10:02;36.47;;;10.40;;
179;SDS011;78;48.788;9.010;2024-01-15T06:12:28;33.47;;;9.90;;
179;SDS011;78;48.788;9.010;2024-01-15T06:14:54;36.50;;;10.70;;
179;SDS011;78;48.788;9.010;2024-01-15T06:17:20;36.07;;;10.30;;
179;SDS011;78;48.788;9.010;2024-01-15T06:19:46;37.70;;;10.77;;
179;SDS011;78;48.788;9.010;2024-01-15T06:22:12;35.30;;;10.83;;
179;SDS011;78;48.788;9.010;2024-01-15T06:24:39;37.27;;;11.40;;
179;SDS011;78;48.788;9.010;2024-01-15T06:27:05;34.57;;;10.40;;
179;SDS011;78;48.788;9.010;2024-01-15T06:29:31;35.30;;;10.90;;
179;SDS011;78;48.788;9.010;2024-01-15T06:31:58;34.90;;;10.40;;
179;SDS011;78;48.788;9.010;2024-01-15T06:34:24;32.37;;;10.47;;
179;SDS011;78;48.788;9.010;2024-01-15T06:36:50;33.10;;;10.40;;
179;SDS011;78;48.788;9.010;2024-01-15T06:39:16;34.20;;;9.80;;
179;SDS011;78;48.788;9.010;2024-01-15T06:41:42;35.07;;;10.27;;
179;SDS011;78;48.788;9.010;2024-01-15T06:44:12;32.47;;;10.07;;
179;SDS011;78;48.788;9.010;2024-01-15T06:46:42;31.23;;;9.40;;
179;SDS011;78;48.788;9.010;2024-01-15T06:49:08;33.27;;;10.13;;
179;SDS011;78;48.788;9.010;2024-01-15T06:51:35;34.57;;;10.27;;
179;SDS011;78;48.788;9.010;2024-01-15T06:54:01;32.70;;;10.23;;
179;SDS011;78;48.788;9.010;2024-01-15T06:56:28;32.03;;;10.50;;
179;SDS011;78;48.788;9.010;2024-01-15T06:58:54;34.87;;;9.70;;
179;SDS011;78;48.788;9.010;2024-01-15T07:01:21;31.27;;;9.00;;
179;SDS011;78;48.788;9.010;2024-01-15T07:03:47;35.90;;;10.70;;
179;SDS011;78;48.788;9.010;2024-01-15T07:06:13;34.20;;;9.53;;
179;SDS011;78;48.788;9.010;2024-01-15T07:08:40;32.90;;;9.47;;
179;SDS011;78;48.788;9.010;2024-01-15T07:11:06;32.03;;;9.33;;
179;SDS011;78;48.788;9.010;2024-01-15T07:13:33;31.40;;;9.90;;
179;SDS011;78;48.788;9.010;2024-01-15T07:16:00;35.60;;;10.00;;
179;SDS011;78;48.788;9.010;2024-01-15T07:18:26;30.00;;;9.37;;
179;SDS011;78;48.788;9.010;2024-01-15T07:20:53;29.07;;;9.03;;
179;SDS011;78;48.788;9.010;2024-01-15T07:23:19;28.70;;;8.57;;
179;SDS011;78;48.788;9.010;2024-01-15T07:25:45;29.37;;;8.83;;
179;SDS011;78;48.788;9.010;2024-01-15T07:28:12;29.03;;;8.43;;
179;SDS011;78;48.788;9.010;2024-01-15T07:30:38;28.73;;;8.50;;
179;SDS011;78;48.788;9.010;2024-01-15T07:33:05;27.40;;;8.40;;
179;SDS011;78;48.788;9.010;2024-01-15T07:35:31;28.70;;;8.63;;
179;SDS011;78;48.788;9.010;2024-01-15T07:37:58;31.70;;;8.47;;
179;SDS011;78;48.788;9.010;2024-01-15T07:40:23;29.13;;;8.57;;
179;SDS011;78;48.788;9.010;2024-01-15T07:42:50;31.00;;;9.00;;
179;SDS011;78;48.788;9.010;2024-01-15T07:45:17;39.30;;;11.60;;
179;SDS011;78;48.788;9.010;2024-01-15T07:47:43;30.83;;;7.97;;
179;SDS011;78;48.788;9.010;2024-01-15T07:50:09;35.10;;;10.00;;
179;SDS011;78;48.788;9.010;2024-01-15T07:52:36;37.00;;;10.00;;
179;SDS011;78;48.788;9.010;2024-01-15T07:55:02;30.50;;;9.00;;
179;SDS011;78;48.788;9.010;2024-01-15T07:57:30;32.47;;;9.37;;
179;SDS011;78;48.788;9.010;2024-01-15T07:59:56;29.27;;;8.30;;
179;SDS011;78;48.788;9.010;2024-01-15T08:02:23;31.50;;;9.47;;
179;SDS011;78;48.788;9.010;2024-01-15T08:04:49;31.17;;;9.03;;
179;SDS011;78;48.788;9.010;2024-01-15T08:07:16;34.50;;;9.57;;
179;SDS011;78;48.788;9.010;2024-01-15T08:09:43;29.50;;;8.80;;
179;SDS011;78;48.788;9.010;2024-01-15T08:12:09;29.13;;;8.53;;
179;SDS011;78;48.788;9.010;2024-01-15T08:14:37;30.50;;;8.80;;
179;SDS011;78;48.788;9.010;2024-01-15T08:17:03;30.13;;;8.50;;
179;SDS011;78;48.788;9.010;2024-01-15T08:19:29;27.57;;;8.30;;
179;SDS011;78;48.788;9.010;2024-01-15T08:21:56;27.50;;;8.07;;
179;SDS011;78;48.788;9.010;2024-01-15T08:24:22;28.60;;;8.07;;
179;SDS011;78;48.788;9.010;2024-01-15T08:26:48;30.63;;;9.70;;
179;SDS011;78;48.788;9.010;2024-01-15T08:29:14;27.43;;;7.80;;
179;SDS011;78;48.788;9.010;2024-01-15T08:31:41;34.33;;;7.47;;
179;SDS011;78;48.788;9.010;2024-01-15T08:34:08;25.50;;;7.60;;
179;SDS011;78;48.788;9.010;2024-01-15T08:36:35;28.33;;;7.53;;
179;SDS011;78;48.788;9.010;2024-01-15T08:39:01;27.77;;;8.00;;
179;SDS011;78;48.788;9.010;2024-01-15T08:41:30;26.27;;;7.50;;
179;SDS011;78;48.788;9.010;2024-01-15T08:43:56;28.60;;;7.43;;
179;SDS011;78;48.788;9.010;2024-01-15T08:46:22;26.57;;;7.50;;
179;SDS011;78;48.788;9.010;2024-01-15T08:48:49;30.73;;;7.63;;
179;SDS011;78;48.788;9.010;2024-01-15T08:51:16;35.67;;;9.67;;
179;SDS011;78;48.788;9.010;2024-01-15T08:53:44;26.10;;;7.10;;
179;SDS011;78;48.788;9.010;2024-01-15T08:56:10;25.13;;;6.87;;
179;SDS011;78;48.788;9.010;2024-01-15T08:58:36;25.43;;;7.33;;
179;SDS011;78;48.788;9.010;2024-01-15T09:01:02;30.00;;;8.47;;
179;SDS011;78;48.788;9.010;2024-01-15T09:03:28;25.20;;;7.10;;
179;SDS011;78;48.788;9.010;2024-01-15T09:05:54;24.27;;;7.10;;
179;SDS011;78;48.788;9.010;2024-01-15T09:08:20;23.87;;;7.10;;
179;SDS011;78;48.788;9.010;2024-01-15T09:10:46;24.23;;;6.80;;
179;SDS011;78;48.788;9.010;2024-01-15T09:13:13;22.87;;;6.20;;
179;SDS011;78;48.788;9.010;2024-01-15T09:15:38;26.63;;;7.73;;
179;SDS011;78;48.788;9.010;2024-01-15T09:18:05;27.00;;;7.13;;
179;SDS011;78;48.788;9.010;2024-01-15T09:20:31;25.50;;;7.20;;
179;SDS011;78;48.788;9.010;2024-01-15T09:22:58;28.60;;;6.70;;
179;SDS011;78;48.788;9.010;2024-01-15T09:25:24;23.50;;;6.10;;
179;SDS011;78;48.788;9.010;2024-01-15T09:27:50;25.30;;;6.20;;
179;SDS011;78;48.788;9.010;2024-01-15T09:30:17;24.70;;;6.30;;
179;SDS011;78;48.788;9.010;2024-01-15T09:32:42;29.23;;;6.17;;
179;SDS011;78;48.788;9.010;2024-01-15T09:35:09;28.80;;;6.37;;
179;SDS011;78;48.788;9.010;2024-01-15T09:37:35;22.43;;;5.60;;
179;SDS011;78;48.788;9.010;2024-01-15T09:40:03;25.13;;;6.80;;
179;SDS011;78;48.788;9.010;2024-01-15T09:42:29;28.83;;;6.50;;
179;SDS011;78;48.788;9.010;2024-01-15T09:44:56;25.10;;;6.40;;
179;SDS011;78;48.788;9.010;2024-01-15T09:47:22;27.67;;;6.60;;
179;SDS011;78;48.788;9.010;2024-01-15T09:49:50;22.83;;;6.00;;
179;SDS011;78;48.788;9.010;2024-01-15T09:52:16;23.90;;;5.97;;
179;SDS011;78;48.788;9.010;2024-01-15T09:54:45;22.10;;;5.47;;
179;SDS011;78;48.788;9.010;2024-01-15T09:57:12;26.10;;;6.73;;
179;SDS011;78;48.788;9.010;2024-01-15T09:59:38;24.53;;;6.83;;
179;SDS011;78;48.788;9.010;2024-01-15T10:02:06;23.20;;;6.27;;
179;SDS011;78;48.788;9.010;2024-01-15T10:04:33;24.07;;;6.53;;
179;SDS011;78;48.788;9.010;2024-01-15T10:07:00;22.43;;;6.20;;
179;SDS011;78;48.788;9.010;2024-01-15T10:09:27;25.30;;;6.50;;
179;SDS011;78;48.788;9.010;2024-01-15T10:11:53;25.70;;;5.93;;
179;SDS011;78;48.788;9.010;2024-01-15T10:14:19;26.43;;;5.67;;
179;SDS011;78;48.788;9.010;2024-01-15T10:16:45;24.57;;;6.33;;
179;SDS011;78;48.788;9.010;2024-01-15T10:19:11;28.57;;;6.40;;
179;SDS011;78;48.788;9.010;2024-01-15T10:21:37;23.43;;;6.30;;
179;SDS011;78;48.788;9.010;2024-01-15T10:24:04;22.07;;;6.30;;
179;SDS011;78;48.788;9.010;2024-01-15T10:26:30;26.60;;;6.40;;
179;SDS011;78;48.788;9.010;2024-01-15T10:28:58;26.33;;;6.40;;
179;SDS011;78;48.788;9.010;2024-01-15T10:31:27;23.80;;;6.50;;
179;SDS011;78;48.788;9.010;2024-01-15T10:33:54;26.10;;;6.33;;
179;SDS011;78;48.788;9.010;2024-01-15T10:36:21;24.30;;;6.60;;
179;SDS011;78;48.788;9.010;2024-01-15T10:38:47;23.20;;;6.43;;
179;SDS011;78;48.788;9.010;2024-01-15T10:41:14;29.23;;;7.67;;
179;SDS011;78;48.788;9.010;2024-01-15T10:43:41;22.70;;;6.03;;
179;SDS011;78;48.788;9.010;2024-01-15T10:46:07;24.87;;;6.60;;
179;SDS011;78;48.788;9.010;2024-01-15T10:48:34;25.27;;;6.50;;
179;SDS011;78;48.788;9.010;2024-01-15T10:51:01;26.83;;;6.20;;
179;SDS011;78;48.788;9.010;2024-01-15T10:53:37;25.90;;;6.83;;
179;SDS011;78;48.788;9.010;2024-01-15T10:56:05;26.50;;;7.10;;
179;SDS011;78;48.788;9.010;2024-01-15T10:58:31;26.53;;;7.10;;
179;SDS011;78;48.788;9.010;2024-01-15T11:00:59;24.70;;;6.70;;
179;SDS011;78;48.788;9.010;2024-01-15T11:03:26;30.70;;;9.57;;
179;SDS011;78;48.788;9.010;2024-01-15T11:05:53;25.67;;;6.67;;
179;SDS011;78;48.788;9.010;2024-01-15T11:08:19;25.73;;;6.80;;
179;SDS011;78;48.788;9.010;2024-01-15T11:10:47;28.07;;;7.97;;
179;SDS011;78;48.788;9.010;2024-01-15T11:18:26;32.03;;;8.20;;
179;SDS011;78;48.788;9.010;2024-01-15T11:23:48;26.83;;;7.47;;
179;SDS011;78;48.788;9.010;2024-01-15T11:26:31;23.00;;;6.90;;
179;SDS011;78;48.788;9.010;2024-01-15T11:28:58;28.47;;;9.03;;
179;SDS011;78;48.788;9.010;2024-01-15T11:31:26;23.70;;;7.13;;
179;SDS011;78;48.788;9.010;2024-01-15T11:33:52;28.87;;;7.80;;
179;SDS011;78;48.788;9.010;2024-01-15T11:36:20;26.73;;;8.03;;
179;SDS011;78;48.788;9.010;2024-01-15T11:38:46;27.90;;;7.60;;
179;SDS011;78;48.788;9.010;2024-01-15T11:41:16;25.53;;;7.30;;
179;SDS011;78;48.788;9.010;2024-01-15T11:43:42;26.53;;;7.83;;
179;SDS011;78;48.788;9.010;2024-01-15T11:46:10;28.37;;;8.50;;
179;SDS011;78;48.788;9.010;2024-01-15T11:48:43;24.17;;;7.33;;
179;SDS011;78;48.788;9.010;2024-01-15T11:51:13;29.03;;;8.70;;
179;SDS011;78;48.788;9.010;2024-01-15T11:53:47;31.27;;;9.20;;
179;SDS011;78;48.788;9.010;2024-01-15T11:56:17;28.10;;;8.47;;
179;SDS011;78;48.788;9.010;2024-01-15T11:58:43;30.83;;;8.63;;
179;SDS011;78;48.788;9.010;2024-01-15T12:01:12;33.50;;;10.23;;
179;SDS011;78;48.788;9.010;2024-01-15T12:03:39;30.53;;;8.10;;
179;SDS011;78;48.788;9.010;2024-01-15T12:06:05;30.40;;;8.50;;
179;SDS011;78;48.788;9.010;2024-01-15T12:08:32;28.37;;;8.50;;
179;SDS011;78;48.788;9.010;2024-01-15T12:10:59;26.70;;;8.10;;
179;SDS011;78;48.788;9.010;2024-01-15T12:13:26;32.83;;;8.70;;
179;SDS011;78;48.788;9.010;2024-01-15T12:15:54;27.80;;;8.60;;
179;SDS011;78;48.788;9.010;2024-01-15T12:18:20;25.60;;;8.20;;
179;SDS011;78;48.788;9.010;2024-01-15T12:20:46;28.20;;;8.30;;
179;SDS011;78;48.788;9.010;2024-01-15T12:23:13;28.27;;;8.50;;
179;SDS011;78;48.788;9.010;2024-01-15T12:25:39;28.17;;;8.40;;
179;SDS011;78;48.788;9.010;2024-01-15T12:28:06;26.00;;;7.73;;
179;SDS011;78;48.788;9.010;2024-01-15T12:30:33;27.60;;;8.60;;
179;SDS011;78;48.788;9.010;2024-01-15T12:33:02;28.77;;;8.90;;
179;SDS011;78;48.788;9.010;2024-01-15T12:35:31;31.60;;;8.20;;
179;SDS011;78;48.788;9.010;2024-01-15T12:37:59;28.17;;;8.47;;
179;SDS011;78;48.788;9.010;2024-01-15T12:40:27;25.73;;;7.60;;
179;SDS011;78;48.788;9.010;2024-01-15T12:42:54;28.30;;;7.57;;
179;SDS011;78;48.788;9.010;2024-01-15T12:45:20;27.30;;;8.30;;
179;SDS011;78;48.788;9.010;2024-01-15T12:47:46;28.20;;;8.47;;
179;SDS011;78;48.788;9.010;2024-01-15T12:50:12;28.80;;;8.23;;
179;SDS011;78;48.788;9.010;2024-01-15T12:52:42;26.83;;;8.63;;
179;SDS011;78;48.788;9.010;2024-01-15T12:55:09;30.83;;;10.40;;
179;SDS011;78;48.788;9.010;2024-01-15T12:57:35;27.97;;;7.60;;
179;SDS011;78;48.788;9.010;2024-01-15T13:00:02;24.30;;;6.57;;
179;SDS011;78;48.788;9.010;2024-01-15T13:02:34;25.80;;;7.17;;
179;SDS011;78;48.788;9.010;2024-01-15T13:05:00;29.90;;;9.60;;
179;SDS011;78;48.788;9.010;2024-01-15T13:07:26;25.33;;;7.10;;
179;SDS011;78;48.788;9.010;2024-01-15T13:09:53;34.70;;;10.40;;
179;SDS011;78;48.788;9.010;2024-01-15T13:12:19;36.03;;;9.87;;
179;SDS011;78;48.788;9.010;2024-01-15T13:14:46;70.30;;;19.90;;
179;SDS011;78;48.788;9.010;2024-01-15T13:17:15;22.30;;;6.03;;
179;SDS011;78;48.788;9.010;2024-01-15T13:19:41;57.63;;;15.43;;
179;SDS011;78;48.788;9.010;2024-01-15T13:22:08;30.30;;;9.10;;
179;SDS011;78;48.788;9.010;2024-01-15T13:24:35;30.87;;;7.90;;
179;SDS011;78;48.788;9.010;2024-01-15T13:27:02;20.47;;;5.57;;
179;SDS011;78;48.788;9.010;2024-01-15T13:29:29;69.47;;;18.80;;
179;SDS011;78;48.788;9.010;2024-01-15T13:31:56;41.33;;;11.53;;
179;SDS011;78;48.788;9.010;2024-01-15T13:34:22;63.60;;;20.90;;
179;SDS011;78;48.788;9.010;2024-01-15T13:36:48;24.67;;;7.67;;
179;SDS011;78;48.788;9.010;2024-01-15T13:39:15;60.20;;;19.50;;
179;SDS011;78;48.788;9.010;2024-01-15T13:41:46;65.50;;;25.93;;
179;SDS011;78;48.788;9.010;2024-01-15T13:44:12;46.97;;;16.80;;
179;SDS011;78;48.788;9.010;2024-01-15T13:46:38;30.20;;;9.33;;
179;SDS011;78;48.788;9.010;2024-01-15T13:49:04;30.97;;;11.30;;
179;SDS011;78;48.788;9.010;2024-01-15T13:51:31;30.50;;;9.60;;
179;SDS011;78;48.788;9.010;2024-01-15T13:53:57;25.67;;;8.70;;
179;SDS011;78;48.788;9.010;2024-01-15T13:56:23;23.97;;;7.40;;
179;SDS011;78;48.788;9.010;2024-01-15T13:58:49;25.57;;;7.30;;
179;SDS011;78;48.788;9.010;2024-01-15T14:01:17;23.70;;;6.53;;
179;SDS011;78;48.788;9.010;2024-01-15T14:03:43;24.23;;;7.10;;
179;SDS011;78;48.788;9.010;2024-01-15T14:06:09;20.70;;;6.17;;
179;SDS011;78;48.788;9.010;2024-01-15T14:08:36;22.73;;;6.60;;
179;SDS011;78;48.788;9.010;2024-01-15T14:11:03;21.00;;;6.13;;
179;SDS011;78;48.788;9.010;2024-01-15T14:13:31;20.67;;;5.97;;
179;SDS011;78;48.788;9.010;2024-01-15T14:15:57;18.90;;;5.43;;
179;SDS011;78;48.788;9.010;2024-01-15T14:18:23;22.40;;;5.50;;
179;SDS011;78;48.788;9.010;2024-01-15T14:20:49;22.37;;;6.73;;
179;SDS011;78;48.788;9.010;2024-01-15T14:23:15;24.27;;;6.93;;
179;SDS011;78;48.788;9.010;2024-01-15T14:25:41;21.80;;;7.00;;
179;SDS011;78;48.788;9.010;2024-01-15T14:28:08;23.90;;;7.20;;
179;SDS011;78;48.788;9.010;2024-01-15T14:30:34;21.27;;;6.27;;
179;SDS011;78;48.788;9.010;2024-01-15T14:33:00;23.33;;;7.23;;
179;SDS011;78;48.788;9.010;2024-01-15T14:35:26;23.63;;;7.73;;
179;SDS011;78;48.788;9.010;2024-01-15T14:37:52;24.83;;;7.83;;
179;SDS011;78;48.788;9.010;2024-01-15T14:40:18;27.57;;;8.80;;
179;SDS011;78;48.788;9.010;2024-01-15T14:42:45;26.10;;;8.73;;
179;SDS011;78;48.788;9.010;2024-01-15T14:45:11;28.17;;;9.07;;
179;SDS011;78;48.788;9.010;2024-01-15T14:47:40;30.00;;;9.20;;
179;SDS011;78;48.788;9.010;2024-01-15T14:50:07;34.50;;;11.07;;
179;SDS011;78;48.788;9.010;2024-01-15T14:52:35;36.80;;;12.10;;
179;SDS011;78;48.788;9.010;2024-01-15T14:55:01;36.70;;;12.50;;
179;SDS011;78;48.788;9.010;2024-01-15T14:57:28;31.50;;;10.30;;
179;SDS011;78;48.788;9.010;2024-01-15T14:59:55;28.00;;;9.40;;
179;SDS011;78;48.788;9.010;2024-01-15T15:02:22;30.40;;;10.50;;
179;SDS011;78;48.788;9.010;2024-01-15T15:04:49;31.03;;;11.00;;
179;SDS011;78;48.788;9.010;2024-01-15T15:07:15;32.73;;;9.47;;
179;SDS011;78;48.788;9.010;2024-01-15T15:09:42;29.53;;;10.80;;
179;SDS011;78;48.788;9.010;2024-01-15T15:12:08;31.40;;;10.97;;
179;SDS011;78;48.788;9.010;2024-01-15T15:14:34;33.60;;;11.40;;
179;SDS011;78;48.788;9.010;2024-01-15T15:17:05;37.67;;;11.30;;
179;SDS011;78;48.788;9.010;2024-01-15T15:19:32;29.33;;;11.00;;
179;SDS011;78;48.788;9.010;2024-01-15T15:21:58;36.60;;;12.40;;
179;SDS011;78;48.788;9.010;2024-01-15T15:24:24;32.70;;;11.43;;
179;SDS011;78;48.788;9.010;2024-01-15T15:26:51;34.77;;;11.93;;
179;SDS011;78;48.788;9.010;2024-01-15T15:29:17;31.13;;;10.20;;
179;SDS011;78;48.788;9.010;2024-01-15T15:31:44;30.60;;;10.43;;
179;SDS011;78;48.788;9.010;2024-01-15T15:34:10;31.67;;;10.73;;
179;SDS011;78;48.788;9.010;2024-01-15T15:36:36;52.43;;;19.23;;
179;SDS011;78;48.788;9.010;2024-01-15T15:39:03;52.23;;;19.60;;
179;SDS011;78;48.788;9.010;2024-01-15T15:41:30;33.20;;;12.53;;
179;SDS011;78;48.788;9.010;2024-01-15T15:43:57;32.67;;;11.90;;